createdAt,value
2016-12-26T00:00:33.739Z,0
2016-12-26T00:01:33.697Z,0
2016-12-26T00:02:33.696Z,0
2016-12-26T00:03:33.684Z,0
2016-12-26T00:04:33.680Z,0
2016-12-26T00:05:33.668Z,0
2016-12-26T00:06:33.661Z,0
2016-12-26T00:07:33.656Z,0
2016-12-26T00:08:33.945Z,0
2016-12-26T00:09:33.637Z,0
2016-12-26T00:10:33.628Z,0
2016-12-26T00:11:33.623Z,0
2016-12-26T00:12:33.616Z,0
2016-12-26T00:13:33.609Z,0
2016-12-26T00:14:33.597Z,0
2016-12-26T00:15:33.594Z,0
2016-12-26T00:16:33.583Z,0
2016-12-26T00:17:33.589Z,0
2016-12-26T00:18:33.569Z,0
2016-12-26T00:19:33.564Z,0
2016-12-26T00:20:33.553Z,0
2016-12-26T00:21:33.542Z,0
2016-12-26T00:22:33.565Z,0
2016-12-26T00:23:33.830Z,0
2016-12-26T00:24:33.522Z,0
2016-12-26T00:25:33.508Z,0
2016-12-26T00:26:33.805Z,0
2016-12-26T00:27:33.493Z,0
2016-12-26T00:28:33.484Z,0
2016-12-26T00:29:33.480Z,0
2016-12-26T00:30:33.779Z,0
2016-12-26T00:31:33.471Z,0
2016-12-26T00:32:33.763Z,0
2016-12-26T00:33:33.455Z,0
2016-12-26T00:34:33.439Z,0
2016-12-26T00:35:33.429Z,0
2016-12-26T00:36:33.453Z,0
2016-12-26T00:37:33.417Z,0
2016-12-26T00:38:33.719Z,0
2016-12-26T00:39:33.405Z,0
2016-12-26T00:40:33.393Z,0
2016-12-26T00:41:33.690Z,0
2016-12-26T00:42:33.379Z,0
2016-12-26T00:43:33.379Z,0
2016-12-26T00:44:33.365Z,0
2016-12-26T00:45:33.360Z,0
2016-12-26T00:46:33.351Z,0
2016-12-26T00:47:33.336Z,0
2016-12-26T00:48:33.363Z,0
2016-12-26T00:49:33.333Z,0
2016-12-26T00:50:33.312Z,0
2016-12-26T00:51:33.310Z,0
2016-12-26T00:52:33.603Z,0
2016-12-26T00:53:33.326Z,0
2016-12-26T00:54:33.283Z,0
2016-12-26T00:55:33.279Z,0
2016-12-26T00:56:33.272Z,0
2016-12-26T00:57:33.258Z,0
2016-12-26T00:58:33.253Z,0
2016-12-26T00:59:33.252Z,0
2016-12-26T01:00:33.235Z,0
2016-12-26T01:01:33.225Z,0
2016-12-26T01:02:33.214Z,0
2016-12-26T01:03:33.219Z,0
2016-12-26T01:04:33.201Z,0
2016-12-26T01:05:33.197Z,0
2016-12-26T01:06:33.192Z,0
2016-12-26T01:07:33.184Z,0
2016-12-26T01:08:33.176Z,0
2016-12-26T01:09:33.166Z,0
2016-12-26T01:10:33.160Z,0
2016-12-26T01:11:33.148Z,0
2016-12-26T01:12:33.144Z,0
2016-12-26T01:13:33.132Z,0
2016-12-26T01:14:33.123Z,0
2016-12-26T01:15:33.122Z,0
2016-12-26T01:16:33.413Z,0
2016-12-26T01:17:33.104Z,0
2016-12-26T01:18:33.097Z,0
2016-12-26T01:19:33.395Z,0
2016-12-26T01:20:33.084Z,0
2016-12-26T01:21:33.071Z,0
2016-12-26T01:22:33.063Z,0
2016-12-26T01:23:33.060Z,0
2016-12-26T01:24:33.051Z,0
2016-12-26T01:25:33.044Z,0
2016-12-26T01:26:33.343Z,0
2016-12-26T01:27:33.029Z,0
2016-12-26T01:28:33.318Z,0
2016-12-26T01:29:33.015Z,0
2016-12-26T01:30:33.007Z,0
2016-12-26T01:31:32.990Z,0
2016-12-26T01:32:32.989Z,0
2016-12-26T01:33:32.980Z,0
2016-12-26T01:34:32.975Z,0
2016-12-26T01:35:33.269Z,0
2016-12-26T01:36:32.957Z,0
2016-12-26T01:37:32.945Z,0
2016-12-26T01:38:32.942Z,0
2016-12-26T01:39:32.931Z,0
2016-12-26T01:40:32.934Z,0
2016-12-26T01:41:32.916Z,0
2016-12-26T01:42:32.912Z,0
2016-12-26T01:43:32.911Z,0
2016-12-26T01:44:32.895Z,0
2016-12-26T01:45:32.888Z,0
2016-12-26T01:46:32.877Z,0
2016-12-26T01:47:32.876Z,0
2016-12-26T01:48:32.864Z,0
2016-12-26T01:49:32.858Z,0
2016-12-26T01:50:32.848Z,0
2016-12-26T01:51:32.839Z,0
2016-12-26T01:52:33.135Z,0
2016-12-26T01:53:32.830Z,0
2016-12-26T01:54:32.820Z,0
2016-12-26T01:55:32.811Z,0
2016-12-26T01:56:32.801Z,0
2016-12-26T01:57:32.795Z,0
2016-12-26T01:58:32.790Z,0
2016-12-26T01:59:32.781Z,0
2016-12-26T02:00:32.773Z,0
2016-12-26T02:01:32.762Z,0
2016-12-26T02:02:32.753Z,0
2016-12-26T02:03:33.048Z,0
2016-12-26T02:04:32.739Z,0
2016-12-26T02:05:32.737Z,0
2016-12-26T02:06:32.724Z,0
2016-12-26T02:07:32.723Z,0
2016-12-26T02:08:32.709Z,0
2016-12-26T02:09:32.701Z,0
2016-12-26T02:10:32.693Z,0
2016-12-26T02:11:32.689Z,0
2016-12-26T02:12:32.680Z,0
2016-12-26T02:13:32.693Z,0
2016-12-26T02:14:32.665Z,0
2016-12-26T02:15:32.652Z,0
2016-12-26T02:16:32.647Z,0
2016-12-26T02:17:32.640Z,0
2016-12-26T02:18:32.638Z,0
2016-12-26T02:19:32.621Z,0
2016-12-26T02:20:32.617Z,0
2016-12-26T02:21:32.607Z,0
2016-12-26T02:22:32.603Z,0
2016-12-26T02:23:32.592Z,0
2016-12-26T02:24:32.583Z,0
2016-12-26T02:25:32.580Z,0
2016-12-26T02:26:32.573Z,0
2016-12-26T02:27:32.563Z,0
2016-12-26T02:28:32.558Z,0
2016-12-26T02:29:32.569Z,0
2016-12-26T02:30:32.537Z,0
2016-12-26T02:31:32.544Z,0
2016-12-26T02:32:32.528Z,0
2016-12-26T02:33:32.522Z,0
2016-12-26T02:34:32.505Z,0
2016-12-26T02:35:32.506Z,0
2016-12-26T02:36:32.497Z,0
2016-12-26T02:37:32.495Z,0
2016-12-26T02:38:32.503Z,0
2016-12-26T02:39:32.475Z,0
2016-12-26T02:40:32.459Z,0
2016-12-26T02:41:32.460Z,0
2016-12-26T02:42:32.450Z,0
2016-12-26T02:43:32.438Z,0
2016-12-26T02:44:32.442Z,0
2016-12-26T02:45:32.423Z,0
2016-12-26T02:46:32.423Z,0
2016-12-26T02:47:32.423Z,0
2016-12-26T02:48:32.404Z,0
2016-12-26T02:49:32.393Z,0
2016-12-26T02:50:32.385Z,0
2016-12-26T02:51:32.383Z,0
2016-12-26T02:52:32.379Z,0
2016-12-26T02:53:32.364Z,0
2016-12-26T02:54:32.356Z,0
2016-12-26T02:55:32.358Z,0
2016-12-26T02:56:32.343Z,0
2016-12-26T02:57:32.334Z,0
2016-12-26T02:58:32.327Z,0
2016-12-26T02:59:32.321Z,0
2016-12-26T03:00:32.315Z,0
2016-12-26T03:01:32.311Z,0
2016-12-26T03:02:32.297Z,0
2016-12-26T03:03:32.289Z,0
2016-12-26T03:04:32.281Z,0
2016-12-26T03:05:32.277Z,0
2016-12-26T03:06:32.267Z,0
2016-12-26T03:07:32.262Z,0
2016-12-26T03:08:32.253Z,0
2016-12-26T03:09:32.548Z,0
2016-12-26T03:10:32.238Z,0
2016-12-26T03:11:32.232Z,0
2016-12-26T03:12:32.220Z,0
2016-12-26T03:13:32.217Z,0
2016-12-26T03:14:32.208Z,0
2016-12-26T03:15:32.209Z,0
2016-12-26T03:16:32.511Z,0
2016-12-26T03:17:32.187Z,0
2016-12-26T03:18:32.189Z,0
2016-12-26T03:19:32.169Z,0
2016-12-26T03:20:32.167Z,0
2016-12-26T03:21:32.157Z,0
2016-12-26T03:22:32.149Z,0
2016-12-26T03:23:32.146Z,0
2016-12-26T03:24:32.131Z,0
2016-12-26T03:25:32.125Z,0
2016-12-26T03:26:32.120Z,0
2016-12-26T03:27:32.110Z,0
2016-12-26T03:28:32.107Z,0
2016-12-26T03:29:32.100Z,0
2016-12-26T03:30:32.088Z,0
2016-12-26T03:31:32.081Z,0
2016-12-26T03:32:32.072Z,0
2016-12-26T03:33:32.067Z,0
2016-12-26T03:34:32.057Z,0
2016-12-26T03:35:32.048Z,0
2016-12-26T03:36:32.041Z,0
2016-12-26T03:37:32.066Z,0
2016-12-26T03:38:32.032Z,0
2016-12-26T03:39:32.019Z,0
2016-12-26T03:40:32.025Z,0
2016-12-26T03:41:32.008Z,0
2016-12-26T03:42:32.000Z,0
2016-12-26T03:43:31.991Z,0
2016-12-26T03:44:31.999Z,0
2016-12-26T03:45:31.977Z,0
2016-12-26T03:46:31.968Z,0
2016-12-26T03:47:31.997Z,0
2016-12-26T03:48:31.964Z,0
2016-12-26T03:49:31.947Z,0
2016-12-26T03:50:31.944Z,0
2016-12-26T03:51:31.932Z,0
2016-12-26T03:52:31.923Z,0
2016-12-26T03:53:31.929Z,0
2016-12-26T03:54:31.910Z,0
2016-12-26T03:55:31.910Z,0
2016-12-26T03:56:31.893Z,0
2016-12-26T03:57:31.886Z,0
2016-12-26T03:58:31.888Z,0
2016-12-26T03:59:31.871Z,0
2016-12-26T04:00:31.868Z,0
2016-12-26T04:01:31.860Z,0
2016-12-26T04:02:31.846Z,0
2016-12-26T04:03:31.843Z,0
2016-12-26T04:04:31.837Z,0
2016-12-26T04:05:31.826Z,0
2016-12-26T04:06:31.823Z,0
2016-12-26T04:07:31.812Z,0
2016-12-26T04:08:31.803Z,0
2016-12-26T04:09:31.796Z,0
2016-12-26T04:10:31.791Z,0
2016-12-26T04:11:31.781Z,0
2016-12-26T04:12:31.782Z,0
2016-12-26T04:13:31.793Z,0
2016-12-26T04:14:31.758Z,0
2016-12-26T04:15:31.754Z,0
2016-12-26T04:16:32.053Z,0
2016-12-26T04:17:31.738Z,0
2016-12-26T04:18:31.738Z,0
2016-12-26T04:19:31.728Z,0
2016-12-26T04:20:31.711Z,0
2016-12-26T04:21:31.712Z,0
2016-12-26T04:22:31.694Z,0
2016-12-26T04:23:31.693Z,0
2016-12-26T04:24:31.987Z,0
2016-12-26T04:25:31.675Z,0
2016-12-26T04:26:31.972Z,0
2016-12-26T04:27:31.662Z,0
2016-12-26T04:28:31.653Z,0
2016-12-26T04:29:31.961Z,0
2016-12-26T04:30:31.634Z,0
2016-12-26T04:31:31.630Z,0
2016-12-26T04:32:31.628Z,0
2016-12-26T04:33:31.620Z,0
2016-12-26T04:34:31.607Z,0
2016-12-26T04:35:31.601Z,0
2016-12-26T04:36:31.602Z,0
2016-12-26T04:37:31.582Z,0
2016-12-26T04:38:31.578Z,0
2016-12-26T04:39:31.568Z,0
2016-12-26T04:40:31.564Z,0
2016-12-26T04:41:31.556Z,0
2016-12-26T04:42:31.555Z,0
2016-12-26T04:43:31.540Z,0
2016-12-26T04:44:31.530Z,0
2016-12-26T04:45:31.550Z,0
2016-12-26T04:46:31.519Z,0
2016-12-26T04:47:31.513Z,0
2016-12-26T04:48:31.502Z,0
2016-12-26T04:49:31.489Z,0
2016-12-26T04:50:31.493Z,0
2016-12-26T04:51:31.476Z,0
2016-12-26T04:52:31.486Z,0
2016-12-26T04:53:31.462Z,0
2016-12-26T04:54:31.461Z,0
2016-12-26T04:55:31.485Z,0
2016-12-26T04:56:31.440Z,0
2016-12-26T04:57:31.435Z,0
2016-12-26T04:58:31.426Z,0
2016-12-26T04:59:31.417Z,0
2016-12-26T05:00:31.411Z,0
2016-12-26T05:01:31.408Z,0
2016-12-26T05:02:31.394Z,0
2016-12-26T05:03:31.388Z,0
2016-12-26T05:04:31.389Z,0
2016-12-26T05:05:31.375Z,0
2016-12-26T05:06:31.366Z,0
2016-12-26T05:07:31.362Z,0
2016-12-26T05:08:31.351Z,0
2016-12-26T05:09:31.341Z,0
2016-12-26T05:10:31.332Z,0
2016-12-26T05:11:31.331Z,0
2016-12-26T05:12:31.321Z,0
2016-12-26T05:13:31.313Z,0
2016-12-26T05:14:31.301Z,0
2016-12-26T05:15:31.299Z,0
2016-12-26T05:16:31.288Z,0
2016-12-26T05:17:31.280Z,0
2016-12-26T05:18:31.278Z,0
2016-12-26T05:19:31.266Z,0
2016-12-26T05:20:31.257Z,0
2016-12-26T05:21:31.254Z,0
2016-12-26T05:22:31.243Z,0
2016-12-26T05:23:31.236Z,0
2016-12-26T05:24:31.226Z,0
2016-12-26T05:25:31.219Z,0
2016-12-26T05:26:31.517Z,0
2016-12-26T05:27:31.206Z,0
2016-12-26T05:28:31.199Z,0
2016-12-26T05:29:31.190Z,0
2016-12-26T05:30:31.182Z,0
2016-12-26T05:31:31.173Z,0
2016-12-26T05:32:31.164Z,0
2016-12-26T05:33:31.158Z,0
2016-12-26T05:34:31.150Z,0
2016-12-26T05:35:31.146Z,0
2016-12-26T05:36:31.148Z,0
2016-12-26T05:37:31.131Z,0
2016-12-26T05:38:31.118Z,0
2016-12-26T05:39:31.109Z,0
2016-12-26T05:40:31.110Z,0
2016-12-26T05:41:31.102Z,0
2016-12-26T05:42:31.090Z,0
2016-12-26T05:43:31.080Z,0
2016-12-26T05:44:31.074Z,0
2016-12-26T05:45:31.067Z,0
2016-12-26T05:46:31.061Z,0
2016-12-26T05:47:31.052Z,0
2016-12-26T05:48:31.043Z,0
2016-12-26T05:49:31.036Z,0
2016-12-26T05:50:31.023Z,0
2016-12-26T05:51:31.022Z,0
2016-12-26T05:52:31.011Z,0
2016-12-26T05:53:31.002Z,0
2016-12-26T05:54:30.997Z,0
2016-12-26T05:55:30.992Z,0
2016-12-26T05:56:31.012Z,0
2016-12-26T05:57:30.972Z,0
2016-12-26T05:58:30.971Z,0
2016-12-26T05:59:30.991Z,0
2016-12-26T06:00:31.462Z,0
2016-12-26T06:01:30.940Z,0
2016-12-26T06:02:30.932Z,0
2016-12-26T06:03:30.925Z,0
2016-12-26T06:04:30.918Z,0
2016-12-26T06:05:30.910Z,0
2016-12-26T06:06:30.902Z,0
2016-12-26T06:07:30.891Z,0
2016-12-26T06:08:30.883Z,0
2016-12-26T06:09:30.879Z,0
2016-12-26T06:10:30.874Z,0
2016-12-26T06:11:30.862Z,0
2016-12-26T06:12:30.854Z,0
2016-12-26T06:13:30.845Z,0
2016-12-26T06:14:30.837Z,0
2016-12-26T06:15:30.830Z,0
2016-12-26T06:16:30.820Z,0
2016-12-26T06:17:30.811Z,0
2016-12-26T06:18:30.810Z,0
2016-12-26T06:19:30.796Z,0
2016-12-26T06:20:30.817Z,0
2016-12-26T06:21:30.785Z,0
2016-12-26T06:22:30.786Z,0
2016-12-26T06:23:30.768Z,0
2016-12-26T06:24:30.761Z,0
2016-12-26T06:25:30.752Z,0
2016-12-26T06:26:30.746Z,0
2016-12-26T06:27:30.739Z,0
2016-12-26T06:28:30.730Z,0
2016-12-26T06:29:30.727Z,0
2016-12-26T06:30:30.713Z,0
2016-12-26T06:31:30.710Z,0
2016-12-26T06:32:30.695Z,0
2016-12-26T06:33:30.702Z,0
2016-12-26T06:34:30.988Z,0
2016-12-26T06:35:30.672Z,0
2016-12-26T06:36:30.664Z,0
2016-12-26T06:37:30.657Z,0
2016-12-26T06:38:30.682Z,0
2016-12-26T06:39:30.643Z,0
2016-12-26T06:40:30.636Z,0
2016-12-26T06:41:30.661Z,0
2016-12-26T06:42:30.614Z,0
2016-12-26T06:43:30.616Z,0
2016-12-26T06:44:30.605Z,0
2016-12-26T06:45:30.599Z,0
2016-12-26T06:46:30.592Z,0
2016-12-26T06:47:30.579Z,0
2016-12-26T06:48:30.569Z,0
2016-12-26T06:49:30.562Z,0
2016-12-26T06:50:30.549Z,0
2016-12-26T06:51:30.548Z,0
2016-12-26T06:52:30.539Z,0
2016-12-26T06:53:30.533Z,0
2016-12-26T06:54:30.531Z,0
2016-12-26T06:55:30.513Z,0
2016-12-26T06:56:30.502Z,0
2016-12-26T06:57:30.505Z,0
2016-12-26T06:58:30.490Z,0
2016-12-26T06:59:30.483Z,0
2016-12-26T07:00:30.481Z,0
2016-12-26T07:01:30.465Z,0
2016-12-26T07:02:30.452Z,0
2016-12-26T07:03:30.445Z,0
2016-12-26T07:04:30.443Z,0
2016-12-26T07:05:30.437Z,0
2016-12-26T07:06:30.419Z,0
2016-12-26T07:07:30.419Z,0
2016-12-26T07:08:30.411Z,0
2016-12-26T07:09:30.402Z,0
2016-12-26T07:10:30.995Z,0
2016-12-26T07:11:30.382Z,0
2016-12-26T07:12:30.375Z,0
2016-12-26T07:13:30.371Z,0
2016-12-26T07:14:30.360Z,0
2016-12-26T07:15:30.351Z,5
2016-12-26T07:16:30.340Z,5
2016-12-26T07:17:30.332Z,5
2016-12-26T07:18:30.324Z,5
2016-12-26T07:19:30.316Z,5
2016-12-26T07:20:30.308Z,5
2016-12-26T07:21:30.299Z,5
2016-12-26T07:22:30.302Z,5
2016-12-26T07:23:30.291Z,5
2016-12-26T07:24:30.279Z,10
2016-12-26T07:25:30.276Z,10
2016-12-26T07:26:30.258Z,10
2016-12-26T07:27:30.249Z,10
2016-12-26T07:28:30.241Z,10
2016-12-26T07:29:30.239Z,15
2016-12-26T07:30:30.226Z,15
2016-12-26T07:31:30.222Z,15
2016-12-26T07:32:30.207Z,20
2016-12-26T07:33:30.204Z,15
2016-12-26T07:34:30.191Z,15
2016-12-26T07:35:30.184Z,15
2016-12-26T07:36:30.177Z,15
2016-12-26T07:37:30.166Z,20
2016-12-26T07:38:30.164Z,15
2016-12-26T07:39:30.190Z,20
2016-12-26T07:40:30.145Z,25
2016-12-26T07:41:30.136Z,25
2016-12-26T07:42:30.130Z,25
2016-12-26T07:43:30.119Z,25
2016-12-26T07:44:30.110Z,25
2016-12-26T07:45:30.100Z,25
2016-12-26T07:46:30.091Z,25
2016-12-26T07:47:30.086Z,25
2016-12-26T07:48:30.077Z,25
2016-12-26T07:49:30.094Z,25
2016-12-26T07:50:30.059Z,20
2016-12-26T07:51:30.051Z,25
2016-12-26T07:52:30.044Z,30
2016-12-26T07:53:30.035Z,35
2016-12-26T07:54:30.025Z,40
2016-12-26T07:55:30.041Z,40
2016-12-26T07:56:30.013Z,40
2016-12-26T07:57:30.001Z,40
2016-12-26T07:58:29.995Z,40
2016-12-26T07:59:29.983Z,40
2016-12-26T08:00:29.979Z,45
2016-12-26T08:01:29.968Z,45
2016-12-26T08:02:29.961Z,45
2016-12-26T08:03:29.953Z,50
2016-12-26T08:04:29.943Z,60
2016-12-26T08:05:29.935Z,45
2016-12-26T08:06:29.927Z,50
2016-12-26T08:07:29.922Z,45
2016-12-26T08:08:29.913Z,35
2016-12-26T08:09:29.906Z,40
2016-12-26T08:10:29.917Z,45
2016-12-26T08:11:29.889Z,40
2016-12-26T08:12:29.878Z,40
2016-12-26T08:13:30.180Z,45
2016-12-26T08:14:29.894Z,40
2016-12-26T08:15:29.859Z,35
2016-12-26T08:16:29.853Z,40
2016-12-26T08:17:29.838Z,45
2016-12-26T08:18:29.838Z,45
2016-12-26T08:19:29.823Z,40
2016-12-26T08:20:29.820Z,40
2016-12-26T08:21:29.812Z,50
2016-12-26T08:22:29.802Z,50
2016-12-26T08:23:29.827Z,60
2016-12-26T08:24:29.797Z,55
2016-12-26T08:25:30.093Z,65
2016-12-26T08:26:29.771Z,65
2016-12-26T08:27:29.763Z,70
2016-12-26T08:28:29.759Z,70
2016-12-26T08:29:29.752Z,95
2016-12-26T08:30:29.742Z,95
2016-12-26T08:31:29.739Z,90
2016-12-26T08:32:29.726Z,90
2016-12-26T08:33:29.723Z,95
2016-12-26T08:34:29.708Z,105
2016-12-26T08:35:29.706Z,110
2016-12-26T08:36:29.701Z,115
2016-12-26T08:37:29.692Z,100
2016-12-26T08:38:29.685Z,95
2016-12-26T08:39:29.673Z,95
2016-12-26T08:40:29.669Z,110
2016-12-26T08:41:29.661Z,130
2016-12-26T08:42:29.956Z,135
2016-12-26T08:43:29.645Z,125
2016-12-26T08:44:29.637Z,120
2016-12-26T08:45:29.630Z,115
2016-12-26T08:46:29.630Z,115
2016-12-26T08:47:29.612Z,110
2016-12-26T08:48:29.633Z,105
2016-12-26T08:49:29.600Z,100
2016-12-26T08:50:29.594Z,100
2016-12-26T08:51:29.587Z,100
2016-12-26T08:52:29.574Z,95
2016-12-26T08:53:29.572Z,95
2016-12-26T08:54:29.588Z,90
2016-12-26T08:55:29.562Z,80
2016-12-26T08:56:29.547Z,70
2016-12-26T08:57:29.546Z,85
2016-12-26T08:58:29.581Z,85
2016-12-26T08:59:29.529Z,110
2016-12-26T09:00:29.521Z,100
2016-12-26T09:01:29.516Z,95
2016-12-26T09:02:29.511Z,110
2016-12-26T09:03:29.520Z,100
2016-12-26T09:04:29.501Z,125
2016-12-26T09:05:29.508Z,130
2016-12-26T09:06:29.480Z,120
2016-12-26T09:07:29.468Z,115
2016-12-26T09:08:29.462Z,125
2016-12-26T09:09:29.456Z,120
2016-12-26T09:10:29.453Z,135
2016-12-26T09:11:29.452Z,140
2016-12-26T09:12:29.437Z,145
2016-12-26T09:13:29.426Z,145
2016-12-26T09:14:29.425Z,155
2016-12-26T09:15:29.416Z,160
2016-12-26T09:16:29.411Z,160
2016-12-26T09:17:29.402Z,145
2016-12-26T09:18:29.696Z,120
2016-12-26T09:19:29.390Z,115
2016-12-26T09:20:29.381Z,135
2016-12-26T09:21:29.376Z,155
2016-12-26T09:22:29.368Z,180
2016-12-26T09:23:29.387Z,190
2016-12-26T09:24:29.358Z,170
2016-12-26T09:25:29.375Z,145
2016-12-26T09:26:29.338Z,155
2016-12-26T09:27:29.333Z,190
2016-12-26T09:28:29.326Z,185
2016-12-26T09:29:29.328Z,170
2016-12-26T09:30:29.315Z,165
2016-12-26T09:31:29.607Z,160
2016-12-26T09:32:29.313Z,170
2016-12-26T09:33:29.291Z,200
2016-12-26T09:34:29.294Z,225
2016-12-26T09:35:29.288Z,185
2016-12-26T09:36:29.273Z,170
2016-12-26T09:37:29.267Z,155
2016-12-26T09:38:29.265Z,145
2016-12-26T09:39:29.260Z,145
2016-12-26T09:40:29.248Z,160
2016-12-26T09:41:30.050Z,155
2016-12-26T09:42:29.641Z,165
2016-12-26T09:43:29.271Z,180
2016-12-26T09:44:29.223Z,190
2016-12-26T09:45:29.217Z,185
2016-12-26T09:46:29.214Z,190
2016-12-26T09:47:29.515Z,195
2016-12-26T09:48:29.199Z,190
2016-12-26T09:49:29.189Z,185
2016-12-26T09:50:29.186Z,190
2016-12-26T09:51:29.178Z,170
2016-12-26T09:52:29.202Z,175
2016-12-26T09:53:29.173Z,185
2016-12-26T09:54:29.159Z,215
2016-12-26T09:55:29.155Z,205
2016-12-26T09:56:29.453Z,150
2016-12-26T09:57:29.140Z,135
2016-12-26T09:58:29.138Z,140
2016-12-26T09:59:29.135Z,145
2016-12-26T10:00:29.123Z,125
2016-12-26T10:01:29.145Z,125
2016-12-26T10:02:29.117Z,120
2016-12-26T10:03:29.142Z,125
2016-12-26T10:04:29.135Z,120
2016-12-26T10:05:29.095Z,110
2016-12-26T10:06:29.113Z,125
2016-12-26T10:07:29.084Z,120
2016-12-26T10:08:29.078Z,95
2016-12-26T10:09:29.072Z,115
2016-12-26T10:10:29.067Z,90
2016-12-26T10:11:29.061Z,100
2016-12-26T10:12:29.049Z,100
2016-12-26T10:13:29.050Z,80
2016-12-26T10:14:29.041Z,85
2016-12-26T10:15:29.036Z,100
2016-12-26T10:16:29.027Z,90
2016-12-26T10:17:29.023Z,75
2016-12-26T10:18:29.012Z,75
2016-12-26T10:19:29.012Z,90
2016-12-26T10:20:29.006Z,95
2016-12-26T10:21:28.994Z,90
2016-12-26T10:22:28.989Z,80
2016-12-26T10:23:29.001Z,70
2016-12-26T10:24:29.000Z,80
2016-12-26T10:25:28.971Z,75
2016-12-26T10:26:28.968Z,65
2016-12-26T10:27:28.959Z,60
2016-12-26T10:28:28.957Z,80
2016-12-26T10:29:28.955Z,85
2016-12-26T10:30:28.938Z,90
2016-12-26T10:31:28.935Z,95
2016-12-26T10:32:28.925Z,100
2016-12-26T10:33:28.920Z,105
2016-12-26T10:34:28.921Z,120
2016-12-26T10:35:28.934Z,115
2016-12-26T10:36:28.914Z,95
2016-12-26T10:37:28.898Z,95
2016-12-26T10:38:28.890Z,115
2016-12-26T10:39:28.882Z,125
2016-12-26T10:40:28.879Z,125
2016-12-26T10:41:28.870Z,125
2016-12-26T10:42:28.870Z,135
2016-12-26T10:43:28.863Z,140
2016-12-26T10:44:28.882Z,160
2016-12-26T10:45:28.842Z,130
2016-12-26T10:46:28.836Z,115
2016-12-26T10:47:28.832Z,95
2016-12-26T10:48:28.827Z,105
2016-12-26T10:49:28.817Z,100
2016-12-26T10:50:28.812Z,100
2016-12-26T10:51:28.806Z,90
2016-12-26T10:52:28.831Z,105
2016-12-26T10:53:28.796Z,105
2016-12-26T10:54:28.789Z,110
2016-12-26T10:55:28.790Z,110
2016-12-26T10:56:28.777Z,100
2016-12-26T10:57:28.767Z,85
2016-12-26T10:58:28.768Z,100
2016-12-26T10:59:28.763Z,110
2016-12-26T11:00:29.051Z,130
2016-12-26T11:01:28.744Z,120
2016-12-26T11:02:28.738Z,115
2016-12-26T11:03:28.730Z,110
2016-12-26T11:04:28.728Z,85
2016-12-26T11:05:28.718Z,85
2016-12-26T11:06:28.714Z,105
2016-12-26T11:07:28.711Z,110
2016-12-26T11:08:28.698Z,110
2016-12-26T11:09:28.696Z,110
2016-12-26T11:10:28.690Z,95
2016-12-26T11:11:28.686Z,100
2016-12-26T11:12:28.679Z,105
2016-12-26T11:13:28.665Z,105
2016-12-26T11:14:28.669Z,120
2016-12-26T11:15:28.654Z,115
2016-12-26T11:16:28.650Z,110
2016-12-26T11:17:28.640Z,115
2016-12-26T11:18:28.633Z,115
2016-12-26T11:19:28.626Z,145
2016-12-26T11:20:28.952Z,130
2016-12-26T11:21:28.616Z,105
2016-12-26T11:22:28.637Z,105
2016-12-26T11:23:28.606Z,130
2016-12-26T11:24:28.601Z,140
2016-12-26T11:25:28.593Z,135
2016-12-26T11:26:28.584Z,140
2016-12-26T11:27:28.579Z,135
2016-12-26T11:28:28.572Z,125
2016-12-26T11:29:28.563Z,105
2016-12-26T11:30:28.565Z,125
2016-12-26T11:31:28.556Z,130
2016-12-26T11:32:28.545Z,150
2016-12-26T11:33:28.536Z,155
2016-12-26T11:34:28.532Z,130
2016-12-26T11:35:28.532Z,145
2016-12-26T11:36:28.531Z,140
2016-12-26T11:37:28.523Z,155
2016-12-26T11:38:28.517Z,145
2016-12-26T11:39:28.506Z,170
2016-12-26T11:40:28.500Z,165
2016-12-26T11:41:28.492Z,145
2016-12-26T11:42:28.484Z,115
2016-12-26T11:43:28.815Z,115
2016-12-26T11:44:28.478Z,130
2016-12-26T11:45:28.470Z,150
2016-12-26T11:46:28.466Z,175
2016-12-26T11:47:28.452Z,210
2016-12-26T11:48:28.451Z,200
2016-12-26T11:49:28.444Z,170
2016-12-26T11:50:28.437Z,160
2016-12-26T11:51:28.428Z,165
2016-12-26T11:52:28.425Z,120
2016-12-26T11:53:28.416Z,125
2016-12-26T11:54:28.416Z,115
2016-12-26T11:55:28.406Z,100
2016-12-26T11:56:28.710Z,95
2016-12-26T11:57:28.403Z,100
2016-12-26T11:58:28.388Z,90
2016-12-26T11:59:28.684Z,110
2016-12-26T12:00:28.376Z,95
2016-12-26T12:01:28.372Z,125
2016-12-26T12:02:28.366Z,125
2016-12-26T12:03:28.387Z,110
2016-12-26T12:04:28.658Z,110
2016-12-26T12:05:28.348Z,100
2016-12-26T12:06:28.339Z,100
2016-12-26T12:07:28.339Z,85
2016-12-26T12:08:28.329Z,90
2016-12-26T12:09:28.352Z,115
2016-12-26T12:10:28.313Z,105
2016-12-26T12:11:28.315Z,125
2016-12-26T12:12:28.311Z,85
2016-12-26T12:13:28.299Z,75
2016-12-26T12:14:28.290Z,60
2016-12-26T12:15:28.286Z,60
2016-12-26T12:16:28.279Z,75
2016-12-26T12:17:28.274Z,40
2016-12-26T12:18:28.272Z,50
2016-12-26T12:19:28.269Z,60
2016-12-26T12:20:28.258Z,60
2016-12-26T12:21:28.248Z,90
2016-12-26T12:22:28.244Z,115
2016-12-26T12:23:28.238Z,120
2016-12-26T12:24:28.236Z,115
2016-12-26T12:25:28.225Z,105
2016-12-26T12:26:28.219Z,110
2016-12-26T12:27:28.210Z,125
2016-12-26T12:28:28.213Z,125
2016-12-26T12:29:28.529Z,120
2016-12-26T12:30:28.197Z,120
2016-12-26T12:31:28.183Z,125
2016-12-26T12:32:28.184Z,125
2016-12-26T12:33:28.197Z,125
2016-12-26T12:35:28.157Z,100
2016-12-26T12:36:28.151Z,95
2016-12-26T12:37:28.146Z,90
2016-12-26T12:38:28.439Z,80
2016-12-26T12:39:28.139Z,70
2016-12-26T12:40:28.159Z,55
2016-12-26T12:41:28.115Z,50
2016-12-26T12:42:28.110Z,45
2016-12-26T12:43:28.112Z,50
2016-12-26T12:44:28.097Z,70
2016-12-26T12:45:28.092Z,80
2016-12-26T12:46:28.077Z,100
2016-12-26T12:47:28.072Z,120
2016-12-26T12:48:28.062Z,130
2016-12-26T12:49:28.358Z,125
2016-12-26T12:50:28.047Z,115
2016-12-26T12:51:28.046Z,100
2016-12-26T12:52:28.031Z,85
2016-12-26T12:53:28.020Z,85
2016-12-26T12:54:28.012Z,90
2016-12-26T12:55:28.010Z,80
2016-12-26T12:56:28.002Z,65
2016-12-26T12:57:28.296Z,65
2016-12-26T12:58:27.981Z,65
2016-12-26T12:59:27.982Z,90
2016-12-26T13:00:27.978Z,110
2016-12-26T13:01:27.958Z,110
2016-12-26T13:02:27.948Z,85
2016-12-26T13:03:27.947Z,75
2016-12-26T13:04:27.936Z,70
2016-12-26T13:05:27.955Z,65
2016-12-26T13:06:27.921Z,65
2016-12-26T13:07:27.915Z,60
2016-12-26T13:08:27.901Z,60
2016-12-26T13:09:27.899Z,65
2016-12-26T13:10:27.915Z,70
2016-12-26T13:11:27.899Z,70
2016-12-26T13:12:27.872Z,65
2016-12-26T13:13:28.170Z,55
2016-12-26T13:14:27.855Z,55
2016-12-26T13:15:27.842Z,55
2016-12-26T13:16:27.844Z,55
2016-12-26T13:17:28.480Z,55
2016-12-26T13:18:27.819Z,60
2016-12-26T13:19:27.816Z,70
2016-12-26T13:20:27.805Z,75
2016-12-26T13:21:27.798Z,80
2016-12-26T13:22:27.812Z,75
2016-12-26T13:23:27.781Z,70
2016-12-26T13:24:27.767Z,65
2016-12-26T13:25:27.764Z,65
2016-12-26T13:26:27.751Z,65
2016-12-26T13:27:27.754Z,65
2016-12-26T13:28:27.745Z,65
2016-12-26T13:29:27.726Z,70
2016-12-26T13:30:27.725Z,65
2016-12-26T13:31:27.714Z,70
2016-12-26T13:32:27.706Z,70
2016-12-26T13:33:27.693Z,60
2016-12-26T13:34:27.684Z,55
2016-12-26T13:35:27.676Z,55
2016-12-26T13:36:27.671Z,70
2016-12-26T13:37:27.665Z,70
2016-12-26T13:38:27.649Z,65
2016-12-26T13:39:27.948Z,70
2016-12-26T13:40:27.635Z,70
2016-12-26T13:41:27.628Z,65
2016-12-26T13:42:27.924Z,60
2016-12-26T13:43:27.606Z,50
2016-12-26T13:44:27.902Z,45
2016-12-26T13:45:27.627Z,45
2016-12-26T13:46:27.586Z,45
2016-12-26T13:47:27.576Z,40
2016-12-26T13:48:27.565Z,40
2016-12-26T13:49:27.561Z,35
2016-12-26T13:50:27.562Z,35
2016-12-26T13:51:27.543Z,35
2016-12-26T13:52:27.531Z,35
2016-12-26T13:53:27.551Z,35
2016-12-26T13:54:27.512Z,30
2016-12-26T13:55:27.511Z,25
2016-12-26T13:56:27.503Z,25
2016-12-26T13:57:27.486Z,25
2016-12-26T13:58:27.484Z,25
2016-12-26T13:59:27.470Z,30
2016-12-26T14:00:27.464Z,35
2016-12-26T14:01:27.457Z,35
2016-12-26T14:02:27.446Z,30
2016-12-26T14:03:27.437Z,30
2016-12-26T14:04:27.733Z,35
2016-12-26T14:05:27.424Z,45
2016-12-26T14:06:27.450Z,55
2016-12-26T14:07:27.400Z,60
2016-12-26T14:08:27.394Z,55
2016-12-26T14:09:27.386Z,50
2016-12-26T14:10:27.375Z,45
2016-12-26T14:11:27.363Z,45
2016-12-26T14:12:27.367Z,50
2016-12-26T14:13:27.352Z,45
2016-12-26T14:14:27.335Z,40
2016-12-26T14:15:27.334Z,35
2016-12-26T14:16:27.322Z,55
2016-12-26T14:17:27.315Z,60
2016-12-26T14:18:27.301Z,55
2016-12-26T14:19:27.291Z,50
2016-12-26T14:20:27.294Z,50
2016-12-26T14:21:27.274Z,45
2016-12-26T14:22:27.267Z,45
2016-12-26T14:23:27.256Z,45
2016-12-26T14:24:27.255Z,50
2016-12-26T14:25:27.241Z,50